sensor_id;sensor_type;location;lat;lon;timestamp;P1;durP1;ratioP1;P2;durP2;ratioP2
8462;SDS011;4268;52.506;13.462;2022-11-11T00:00:21;5.73;;;3.70;;
8462;SDS011;4268;52.506;13.462;2022-11-11T00:02:47;5.50;;;3.70;;
8462;SDS011;4268;52.506;13.462;2022-11-11T00:05:13;7.60;;;4.03;;
8462;SDS011;4268;52.506;13.462;2022-11-11T00:07:39;5.87;;;3.70;;
8462;SDS011;4268;52.506;13.462;2022-11-11T00:10:05;4.37;;;3.50;;
8462;SDS011;4268;52.506;13.462;2022-11-11T00:12:31;5.40;;;3.70;;
8462;SDS011;4268;52.506;13.462;2022-11-11T00:14:56;6.37;;;4.00;;
8462;SDS011;4268;52.506;13.462;2022-11-11T00:17:22;5.67;;;3.60;;
8462;SDS011;4268;52.506;13.462;2022-11-11T00:20:07;6.40;;;3.63;;
8462;SDS011;4268;52.506;13.462;2022-11-11T00:22:53;5.70;;;3.93;;
8462;SDS011;4268;52.506;13.462;2022-11-11T00:25:37;4.97;;;3.50;;
8462;SDS011;4268;52.506;13.462;2022-11-11T00:28:02;6.93;;;4.03;;
8462;SDS011;4268;52.506;13.462;2022-11-11T00:30:28;5.77;;;3.97;;
8462;SDS011;4268;52.506;13.462;2022-11-11T00:32:54;5.50;;;3.90;;
8462;SDS011;4268;52.506;13.462;2022-11-11T00:35:19;5.53;;;3.90;;
8462;SDS011;4268;52.506;13.462;2022-11-11T00:38:20;6.53;;;4.37;;
8462;SDS011;4268;52.506;13.462;2022-11-11T00:41:04;6.70;;;4.20;;
8462;SDS011;4268;52.506;13.462;2022-11-11T00:43:30;6.17;;;3.90;;
8462;SDS011;4268;52.506;13.462;2022-11-11T00:45:56;5.70;;;3.77;;
8462;SDS011;4268;52.506;13.462;2022-11-11T00:48:41;4.27;;;3.67;;
8462;SDS011;4268;52.506;13.462;2022-11-11T00:51:26;5.13;;;3.97;;
8462;SDS011;4268;52.506;13.462;2022-11-11T00:53:52;7.40;;;4.03;;
8462;SDS011;4268;52.506;13.462;2022-11-11T00:56:17;5.33;;;3.90;;
8462;SDS011;4268;52.506;13.462;2022-11-11T00:58:43;4.40;;;3.83;;
8462;SDS011;4268;52.506;13.462;2022-11-11T01:01:09;8.17;;;4.50;;
8462;SDS011;4268;52.506;13.462;2022-11-11T01:03:35;5.67;;;4.37;;
8462;SDS011;4268;52.506;13.462;2022-11-11T01:06:01;8.57;;;4.37;;
8462;SDS011;4268;52.506;13.462;2022-11-11T01:08:28;5.57;;;4.10;;
8462;SDS011;4268;52.506;13.462;2022-11-11T01:10:54;5.33;;;4.20;;
8462;SDS011;4268;52.506;13.462;2022-11-11T01:13:21;5.40;;;4.17;;
8462;SDS011;4268;52.506;13.462;2022-11-11T01:15:52;5.23;;;4.10;;
8462;SDS011;4268;52.506;13.462;2022-11-11T01:18:23;5.00;;;4.50;;
8462;SDS011;4268;52.506;13.462;2022-11-11T01:20:56;6.37;;;4.43;;
8462;SDS011;4268;52.506;13.462;2022-11-11T01:23:25;6.70;;;6.00;;
8462;SDS011;4268;52.506;13.462;2022-11-11T01:25:51;6.20;;;4.10;;
8462;SDS011;4268;52.506;13.462;2022-11-11T01:28:17;5.27;;;4.23;;
8462;SDS011;4268;52.506;13.462;2022-11-11T01:30:43;7.90;;;5.03;;
8462;SDS011;4268;52.506;13.462;2022-11-11T01:33:09;8.60;;;4.17;;
8462;SDS011;4268;52.506;13.462;2022-11-11T01:35:39;5.03;;;3.87;;
8462;SDS011;4268;52.506;13.462;2022-11-11T01:38:06;6.30;;;4.30;;
8462;SDS011;4268;52.506;13.462;2022-11-11T01:40:39;6.77;;;4.43;;
8462;SDS011;4268;52.506;13.462;2022-11-11T01:45:42;4.97;;;4.47;;
8462;SDS011;4268;52.506;13.462;2022-11-11T01:48:26;5.70;;;4.30;;
8462;SDS011;4268;52.506;13.462;2022-11-11T01:51:34;6.23;;;4.27;;
8462;SDS011;4268;52.506;13.462;2022-11-11T01:54:03;6.43;;;4.50;;
8462;SDS011;4268;52.506;13.462;2022-11-11T01:56:34;4.70;;;3.97;;
8462;SDS011;4268;52.506;13.462;2022-11-11T01:59:01;5.73;;;4.13;;
8462;SDS011;4268;52.506;13.462;2022-11-11T02:01:31;5.80;;;4.10;;
8462;SDS011;4268;52.506;13.462;2022-11-11T02:03:57;6.60;;;4.07;;
8462;SDS011;4268;52.506;13.462;2022-11-11T02:06:43;6.10;;;4.20;;
8462;SDS011;4268;52.506;13.462;2022-11-11T02:09:09;4.73;;;4.00;;
8462;SDS011;4268;52.506;13.462;2022-11-11T02:11:35;6.03;;;4.00;;
8462;SDS011;4268;52.506;13.462;2022-11-11T02:14:23;6.37;;;3.90;;
8462;SDS011;4268;52.506;13.462;2022-11-11T02:17:01;6.87;;;4.53;;
8462;SDS011;4268;52.506;13.462;2022-11-11T02:22:17;4.43;;;4.03;;
8462;SDS011;4268;52.506;13.462;2022-11-11T02:24:57;6.30;;;3.80;;
8462;SDS011;4268;52.506;13.462;2022-11-11T02:27:24;6.80;;;4.23;;
8462;SDS011;4268;52.506;13.462;2022-11-11T02:29:51;5.90;;;3.80;;
8462;SDS011;4268;52.506;13.462;2022-11-11T02:32:19;5.03;;;3.83;;
8462;SDS011;4268;52.506;13.462;2022-11-11T02:34:45;5.93;;;4.37;;
8462;SDS011;4268;52.506;13.462;2022-11-11T02:37:10;4.20;;;3.80;;
8462;SDS011;4268;52.506;13.462;2022-11-11T02:39:39;6.47;;;4.30;;
8462;SDS011;4268;52.506;13.462;2022-11-11T02:42:09;5.93;;;4.00;;
8462;SDS011;4268;52.506;13.462;2022-11-11T02:44:38;4.20;;;3.60;;
8462;SDS011;4268;52.506;13.462;2022-11-11T02:47:04;5.57;;;4.13;;
8462;SDS011;4268;52.506;13.462;2022-11-11T02:49:30;5.63;;;4.17;;
8462;SDS011;4268;52.506;13.462;2022-11-11T02:51:56;5.97;;;4.10;;
8462;SDS011;4268;52.506;13.462;2022-11-11T02:54:21;8.10;;;4.50;;
8462;SDS011;4268;52.506;13.462;2022-11-11T02:56:47;5.53;;;4.27;;
8462;SDS011;4268;52.506;13.462;2022-11-11T02:59:31;8.13;;;4.47;;
8462;SDS011;4268;52.506;13.462;2022-11-11T03:01:56;5.40;;;4.30;;
8462;SDS011;4268;52.506;13.462;2022-11-11T03:04:22;7.10;;;4.47;;
8462;SDS011;4268;52.506;13.462;2022-11-11T03:06:47;7.53;;;4.37;;
8462;SDS011;4268;52.506;13.462;2022-11-11T03:09:13;5.77;;;4.40;;
8462;SDS011;4268;52.506;13.462;2022-11-11T03:11:38;8.67;;;4.40;;
8462;SDS011;4268;52.506;13.462;2022-11-11T03:14:05;6.30;;;4.40;;
8462;SDS011;4268;52.506;13.462;2022-11-11T03:16:30;6.07;;;3.93;;
8462;SDS011;4268;52.506;13.462;2022-11-11T03:19:31;6.50;;;4.20;;
8462;SDS011;4268;52.506;13.462;2022-11-11T03:21:57;6.60;;;4.43;;
8462;SDS011;4268;52.506;13.462;2022-11-11T03:24:23;4.77;;;3.93;;
8462;SDS011;4268;52.506;13.462;2022-11-11T03:27:09;7.63;;;4.50;;
8462;SDS011;4268;52.506;13.462;2022-11-11T03:29:35;7.70;;;4.10;;
8462;SDS011;4268;52.506;13.462;2022-11-11T03:32:00;5.20;;;4.00;;
8462;SDS011;4268;52.506;13.462;2022-11-11T03:34:26;5.90;;;4.10;;
8462;SDS011;4268;52.506;13.462;2022-11-11T03:36:51;7.13;;;4.53;;
8462;SDS011;4268;52.506;13.462;2022-11-11T03:39:35;5.93;;;4.30;;
8462;SDS011;4268;52.506;13.462;2022-11-11T03:42:00;6.30;;;4.10;;
8462;SDS011;4268;52.506;13.462;2022-11-11T03:44:26;4.67;;;3.83;;
8462;SDS011;4268;52.506;13.462;2022-11-11T03:46:52;5.40;;;4.10;;
8462;SDS011;4268;52.506;13.462;2022-11-11T03:49:19;5.93;;;4.30;;
8462;SDS011;4268;52.506;13.462;2022-11-11T03:51:44;5.97;;;3.90;;
8462;SDS011;4268;52.506;13.462;2022-11-11T03:54:10;4.97;;;3.83;;
8462;SDS011;4268;52.506;13.462;2022-11-11T03:56:35;5.17;;;4.03;;
8462;SDS011;4268;52.506;13.462;2022-11-11T03:59:01;6.90;;;4.80;;
8462;SDS011;4268;52.506;13.462;2022-11-11T04:01:26;6.13;;;4.00;;
8462;SDS011;4268;52.506;13.462;2022-11-11T04:04:10;6.10;;;4.43;;
8462;SDS011;4268;52.506;13.462;2022-11-11T04:06:54;5.70;;;4.60;;
8462;SDS011;4268;52.506;13.462;2022-11-11T04:09:38;5.10;;;3.77;;
8462;SDS011;4268;52.506;13.462;2022-11-11T04:12:22;6.10;;;4.03;;
8462;SDS011;4268;52.506;13.462;2022-11-11T04:14:49;4.30;;;3.90;;
8462;SDS011;4268;52.506;13.462;2022-11-11T04:17:33;7.23;;;4.37;;
8462;SDS011;4268;52.506;13.462;2022-11-11T04:19:59;6.63;;;4.43;;
8462;SDS011;4268;52.506;13.462;2022-11-11T04:22:43;7.50;;;4.23;;
8462;SDS011;4268;52.506;13.462;2022-11-11T04:25:08;5.40;;;4.17;;
8462;SDS011;4268;52.506;13.462;2022-11-11T04:27:55;5.23;;;4.03;;
8462;SDS011;4268;52.506;13.462;2022-11-11T04:30:40;5.03;;;4.27;;
8462;SDS011;4268;52.506;13.462;2022-11-11T04:33:05;5.47;;;4.10;;
8462;SDS011;4268;52.506;13.462;2022-11-11T04:35:31;3.93;;;3.53;;
8462;SDS011;4268;52.506;13.462;2022-11-11T04:37:57;5.43;;;3.87;;
8462;SDS011;4268;52.506;13.462;2022-11-11T04:40:42;6.63;;;4.13;;
8462;SDS011;4268;52.506;13.462;2022-11-11T04:43:26;8.33;;;4.10;;
8462;SDS011;4268;52.506;13.462;2022-11-11T04:45:52;6.47;;;4.53;;
8462;SDS011;4268;52.506;13.462;2022-11-11T04:48:17;6.13;;;4.87;;
8462;SDS011;4268;52.506;13.462;2022-11-11T04:50:44;7.20;;;4.10;;
8462;SDS011;4268;52.506;13.462;2022-11-11T04:53:11;5.13;;;4.10;;
8462;SDS011;4268;52.506;13.462;2022-11-11T04:55:38;5.10;;;4.27;;
8462;SDS011;4268;52.506;13.462;2022-11-11T04:58:23;5.90;;;4.50;;
8462;SDS011;4268;52.506;13.462;2022-11-11T05:00:50;6.33;;;4.20;;
8462;SDS011;4268;52.506;13.462;2022-11-11T05:03:16;5.93;;;4.33;;
8462;SDS011;4268;52.506;13.462;2022-11-11T05:05:45;6.00;;;4.60;;
8462;SDS011;4268;52.506;13.462;2022-11-11T05:08:40;5.60;;;4.20;;
8462;SDS011;4268;52.506;13.462;2022-11-11T05:11:20;7.00;;;4.00;;
8462;SDS011;4268;52.506;13.462;2022-11-11T05:13:48;5.00;;;4.07;;
8462;SDS011;4268;52.506;13.462;2022-11-11T05:16:33;6.33;;;4.37;;
8462;SDS011;4268;52.506;13.462;2022-11-11T05:19:22;5.80;;;4.30;;
8462;SDS011;4268;52.506;13.462;2022-11-11T05:22:18;7.60;;;4.13;;
8462;SDS011;4268;52.506;13.462;2022-11-11T05:24:45;4.93;;;4.20;;
8462;SDS011;4268;52.506;13.462;2022-11-11T05:27:29;7.83;;;4.50;;
8462;SDS011;4268;52.506;13.462;2022-11-11T05:29:55;7.23;;;4.60;;
8462;SDS011;4268;52.506;13.462;2022-11-11T05:32:21;5.63;;;3.80;;
8462;SDS011;4268;52.506;13.462;2022-11-11T05:34:47;5.00;;;4.30;;
8462;SDS011;4268;52.506;13.462;2022-11-11T05:37:13;5.23;;;4.73;;
8462;SDS011;4268;52.506;13.462;2022-11-11T05:39:39;6.80;;;4.13;;
8462;SDS011;4268;52.506;13.462;2022-11-11T05:42:05;5.33;;;4.53;;
8462;SDS011;4268;52.506;13.462;2022-11-11T05:44:31;6.23;;;4.73;;
8462;SDS011;4268;52.506;13.462;2022-11-11T05:46:57;6.53;;;4.33;;
8462;SDS011;4268;52.506;13.462;2022-11-11T05:49:22;4.77;;;4.30;;
8462;SDS011;4268;52.506;13.462;2022-11-11T05:51:49;5.67;;;4.20;;
8462;SDS011;4268;52.506;13.462;2022-11-11T05:54:15;7.10;;;4.30;;
8462;SDS011;4268;52.506;13.462;2022-11-11T05:56:41;6.53;;;4.27;;
8462;SDS011;4268;52.506;13.462;2022-11-11T05:59:07;4.77;;;4.27;;
8462;SDS011;4268;52.506;13.462;2022-11-11T06:01:33;6.37;;;4.17;;
8462;SDS011;4268;52.506;13.462;2022-11-11T06:03:59;5.80;;;4.20;;
8462;SDS011;4268;52.506;13.462;2022-11-11T06:06:24;5.10;;;4.10;;
8462;SDS011;4268;52.506;13.462;2022-11-11T06:08:50;5.33;;;4.50;;
8462;SDS011;4268;52.506;13.462;2022-11-11T06:11:15;6.63;;;4.17;;
8462;SDS011;4268;52.506;13.462;2022-11-11T06:13:41;6.73;;;4.37;;
8462;SDS011;4268;52.506;13.462;2022-11-11T06:16:07;5.60;;;4.20;;
8462;SDS011;4268;52.506;13.462;2022-11-11T06:18:32;5.70;;;4.30;;
8462;SDS011;4268;52.506;13.462;2022-11-11T06:20:58;6.33;;;4.40;;
8462;SDS011;4268;52.506;13.462;2022-11-11T06:23:24;4.93;;;4.30;;
8462;SDS011;4268;52.506;13.462;2022-11-11T06:25:51;5.77;;;4.40;;
8462;SDS011;4268;52.506;13.462;2022-11-11T06:28:35;5.07;;;4.10;;
8462;SDS011;4268;52.506;13.462;2022-11-11T06:31:01;5.33;;;4.57;;
8462;SDS011;4268;52.506;13.462;2022-11-11T06:33:27;6.77;;;4.33;;
8462;SDS011;4268;52.506;13.462;2022-11-11T06:35:53;6.10;;;4.33;;
8462;SDS011;4268;52.506;13.462;2022-11-11T06:38:18;6.20;;;4.70;;
8462;SDS011;4268;52.506;13.462;2022-11-11T06:40:44;5.30;;;4.73;;
8462;SDS011;4268;52.506;13.462;2022-11-11T06:43:10;4.83;;;4.23;;
8462;SDS011;4268;52.506;13.462;2022-11-11T06:45:37;6.80;;;4.73;;
8462;SDS011;4268;52.506;13.462;2022-11-11T06:48:03;5.73;;;4.30;;
8462;SDS011;4268;52.506;13.462;2022-11-11T06:50:30;6.00;;;4.27;;
8462;SDS011;4268;52.506;13.462;2022-11-11T06:53:02;7.60;;;4.70;;
8462;SDS011;4268;52.506;13.462;2022-11-11T06:55:29;7.27;;;4.87;;
8462;SDS011;4268;52.506;13.462;2022-11-11T06:58:00;10.10;;;4.93;;
8462;SDS011;4268;52.506;13.462;2022-11-11T07:00:32;5.73;;;4.57;;
8462;SDS011;4268;52.506;13.462;2022-11-11T07:02:59;5.23;;;4.70;;
8462;SDS011;4268;52.506;13.462;2022-11-11T07:05:25;5.03;;;4.40;;
8462;SDS011;4268;52.506;13.462;2022-11-11T07:07:51;5.53;;;4.10;;
8462;SDS011;4268;52.506;13.462;2022-11-11T07:10:16;5.57;;;4.70;;
8462;SDS011;4268;52.506;13.462;2022-11-11T07:12:42;6.23;;;4.40;;
8462;SDS011;4268;52.506;13.462;2022-11-11T07:15:08;5.60;;;4.50;;
8462;SDS011;4268;52.506;13.462;2022-11-11T07:17:34;5.87;;;4.43;;
8462;SDS011;4268;52.506;13.462;2022-11-11T07:19:59;6.40;;;4.53;;
8462;SDS011;4268;52.506;13.462;2022-11-11T07:22:24;5.63;;;4.83;;
8462;SDS011;4268;52.506;13.462;2022-11-11T07:24:50;6.07;;;4.30;;
8462;SDS011;4268;52.506;13.462;2022-11-11T07:27:16;5.77;;;4.47;;
8462;SDS011;4268;52.506;13.462;2022-11-11T07:29:41;5.90;;;4.20;;
8462;SDS011;4268;52.506;13.462;2022-11-11T07:32:06;7.47;;;4.47;;
8462;SDS011;4268;52.506;13.462;2022-11-11T07:34:32;5.43;;;4.10;;
8462;SDS011;4268;52.506;13.462;2022-11-11T07:36:57;6.43;;;4.23;;
8462;SDS011;4268;52.506;13.462;2022-11-11T07:39:23;7.17;;;4.30;;
8462;SDS011;4268;52.506;13.462;2022-11-11T07:41:48;6.50;;;4.50;;
8462;SDS011;4268;52.506;13.462;2022-11-11T07:44:14;5.30;;;4.33;;
8462;SDS011;4268;52.506;13.462;2022-11-11T07:46:39;5.80;;;4.00;;
8462;SDS011;4268;52.506;13.462;2022-11-11T07:49:05;4.17;;;3.77;;
8462;SDS011;4268;52.506;13.462;2022-11-11T07:51:30;5.00;;;3.80;;
8462;SDS011;4268;52.506;13.462;2022-11-11T07:53:56;6.27;;;4.20;;
8462;SDS011;4268;52.506;13.462;2022-11-11T07:56:21;6.27;;;4.30;;
8462;SDS011;4268;52.506;13.462;2022-11-11T07:58:47;5.23;;;4.20;;
8462;SDS011;4268;52.506;13.462;2022-11-11T08:01:12;4.60;;;4.20;;
8462;SDS011;4268;52.506;13.462;2022-11-11T08:03:38;6.03;;;4.80;;
8462;SDS011;4268;52.506;13.462;2022-11-11T08:06:14;5.37;;;4.00;;
8462;SDS011;4268;52.506;13.462;2022-11-11T08:08:41;8.53;;;4.47;;
8462;SDS011;4268;52.506;13.462;2022-11-11T08:11:06;5.47;;;4.60;;
8462;SDS011;4268;52.506;13.462;2022-11-11T08:13:32;5.57;;;4.20;;
8462;SDS011;4268;52.506;13.462;2022-11-11T08:16:12;7.87;;;4.50;;
8462;SDS011;4268;52.506;13.462;2022-11-11T08:18:38;9.60;;;4.80;;
8462;SDS011;4268;52.506;13.462;2022-11-11T08:21:05;5.73;;;4.77;;
8462;SDS011;4268;52.506;13.462;2022-11-11T08:23:31;5.17;;;4.37;;
8462;SDS011;4268;52.506;13.462;2022-11-11T08:25:58;6.77;;;4.57;;
8462;SDS011;4268;52.506;13.462;2022-11-11T08:28:25;6.77;;;4.60;;
8462;SDS011;4268;52.506;13.462;2022-11-11T08:30:51;6.00;;;4.70;;
8462;SDS011;4268;52.506;13.462;2022-11-11T08:33:17;5.60;;;3.97;;
8462;SDS011;4268;52.506;13.462;2022-11-11T08:35:42;5.67;;;4.33;;
8462;SDS011;4268;52.506;13.462;2022-11-11T08:38:08;11.13;;;5.30;;
8462;SDS011;4268;52.506;13.462;2022-11-11T08:40:33;5.00;;;4.20;;
8462;SDS011;4268;52.506;13.462;2022-11-11T08:42:59;4.27;;;3.87;;
8462;SDS011;4268;52.506;13.462;2022-11-11T08:45:24;5.37;;;3.97;;
8462;SDS011;4268;52.506;13.462;2022-11-11T08:47:50;5.03;;;4.00;;
8462;SDS011;4268;52.506;13.462;2022-11-11T08:50:16;4.70;;;4.10;;
8462;SDS011;4268;52.506;13.462;2022-11-11T08:52:48;6.40;;;3.80;;
8462;SDS011;4268;52.506;13.462;2022-11-11T08:55:15;6.13;;;3.90;;
8462;SDS011;4268;52.506;13.462;2022-11-11T08:57:41;5.87;;;4.20;;
8462;SDS011;4268;52.506;13.462;2022-11-11T09:00:07;4.20;;;3.80;;
8462;SDS011;4268;52.506;13.462;2022-11-11T09:02:33;5.57;;;4.10;;
8462;SDS011;4268;52.506;13.462;2022-11-11T09:04:59;5.77;;;4.10;;
8462;SDS011;4268;52.506;13.462;2022-11-11T09:07:25;6.07;;;4.17;;
8462;SDS011;4268;52.506;13.462;2022-11-11T09:09:51;5.27;;;3.80;;
8462;SDS011;4268;52.506;13.462;2022-11-11T09:12:17;4.20;;;3.80;;
8462;SDS011;4268;52.506;13.462;2022-11-11T09:14:42;5.60;;;3.50;;
8462;SDS011;4268;52.506;13.462;2022-11-11T09:17:08;4.07;;;3.60;;
8462;SDS011;4268;52.506;13.462;2022-11-11T09:19:33;4.53;;;4.13;;
8462;SDS011;4268;52.506;13.462;2022-11-11T09:21:59;3.83;;;3.53;;
8462;SDS011;4268;52.506;13.462;2022-11-11T09:24:24;6.23;;;3.70;;
8462;SDS011;4268;52.506;13.462;2022-11-11T09:26:50;5.03;;;3.70;;
8462;SDS011;4268;52.506;13.462;2022-11-11T09:29:16;5.00;;;3.60;;
8462;SDS011;4268;52.506;13.462;2022-11-11T09:31:42;5.17;;;3.83;;
8462;SDS011;4268;52.506;13.462;2022-11-11T09:34:08;5.53;;;3.40;;
8462;SDS011;4268;52.506;13.462;2022-11-11T09:36:33;4.00;;;3.60;;
8462;SDS011;4268;52.506;13.462;2022-11-11T09:38:59;4.13;;;3.40;;
8462;SDS011;4268;52.506;13.462;2022-11-11T09:47:12;4.33;;;3.30;;
8462;SDS011;4268;52.506;13.462;2022-11-11T09:52:46;4.17;;;3.33;;
8462;SDS011;4268;52.506;13.462;2022-11-11T09:55:26;4.67;;;3.40;;
8462;SDS011;4268;52.506;13.462;2022-11-11T09:59:00;5.00;;;3.67;;
8462;SDS011;4268;52.506;13.462;2022-11-11T10:00:57;4.53;;;3.43;;
8462;SDS011;4268;52.506;13.462;2022-11-11T10:03:26;4.57;;;3.57;;
8462;SDS011;4268;52.506;13.462;2022-11-11T10:06:29;4.50;;;3.60;;
8462;SDS011;4268;52.506;13.462;2022-11-11T10:08:59;6.03;;;3.73;;
8462;SDS011;4268;52.506;13.462;2022-11-11T10:11:34;3.90;;;3.50;;
8462;SDS011;4268;52.506;13.462;2022-11-11T10:14:04;4.40;;;3.80;;
8462;SDS011;4268;52.506;13.462;2022-11-11T10:16:37;4.63;;;3.83;;
8462;SDS011;4268;52.506;13.462;2022-11-11T10:21:59;4.03;;;3.63;;
8462;SDS011;4268;52.506;13.462;2022-11-11T10:24:45;4.27;;;3.50;;
8462;SDS011;4268;52.506;13.462;2022-11-11T10:27:23;4.43;;;3.40;;
8462;SDS011;4268;52.506;13.462;2022-11-11T10:29:49;5.13;;;3.47;;
8462;SDS011;4268;52.506;13.462;2022-11-11T10:34:49;4.97;;;3.47;;
8462;SDS011;4268;52.506;13.462;2022-11-11T10:37:26;4.43;;;3.60;;
8462;SDS011;4268;52.506;13.462;2022-11-11T10:40:11;4.67;;;3.80;;
8462;SDS011;4268;52.506;13.462;2022-11-11T10:42:46;3.83;;;3.33;;
8462;SDS011;4268;52.506;13.462;2022-11-11T10:45:58;4.77;;;3.80;;
8462;SDS011;4268;52.506;13.462;2022-11-11T10:48:11;3.93;;;3.50;;
8462;SDS011;4268;52.506;13.462;2022-11-11T10:50:42;4.90;;;4.33;;
8462;SDS011;4268;52.506;13.462;2022-11-11T10:58:41;5.70;;;4.23;;
8462;SDS011;4268;52.506;13.462;2022-11-11T11:01:14;4.70;;;4.30;;
8462;SDS011;4268;52.506;13.462;2022-11-11T11:03:44;7.17;;;3.73;;
8462;SDS011;4268;52.506;13.462;2022-11-11T11:06:24;4.20;;;3.80;;
8462;SDS011;4268;52.506;13.462;2022-11-11T11:08:53;3.83;;;3.30;;
8462;SDS011;4268;52.506;13.462;2022-11-11T11:11:29;4.07;;;3.50;;
8462;SDS011;4268;52.506;13.462;2022-11-11T11:14:05;4.27;;;3.20;;
8462;SDS011;4268;52.506;13.462;2022-11-11T11:16:51;3.67;;;3.37;;
8462;SDS011;4268;52.506;13.462;2022-11-11T11:19:26;4.60;;;3.60;;
8462;SDS011;4268;52.506;13.462;2022-11-11T11:21:56;3.90;;;3.50;;
8462;SDS011;4268;52.506;13.462;2022-11-11T11:26:50;4.67;;;3.60;;
8462;SDS011;4268;52.506;13.462;2022-11-11T11:29:28;4.60;;;3.60;;
8462;SDS011;4268;52.506;13.462;2022-11-11T11:32:17;4.57;;;3.80;;
8462;SDS011;4268;52.506;13.462;2022-11-11T11:34:52;3.63;;;3.20;;
8462;SDS011;4268;52.506;13.462;2022-11-11T11:37:20;3.80;;;3.40;;
8462;SDS011;4268;52.506;13.462;2022-11-11T11:40:00;4.03;;;3.57;;
8462;SDS011;4268;52.506;13.462;2022-11-11T11:42:28;4.67;;;3.23;;
8462;SDS011;4268;52.506;13.462;2022-11-11T11:44:55;4.07;;;3.40;;
8462;SDS011;4268;52.506;13.462;2022-11-11T11:50:20;6.30;;;3.70;;
8462;SDS011;4268;52.506;13.462;2022-11-11T11:55:24;3.90;;;3.53;;
8462;SDS011;4268;52.506;13.462;2022-11-11T11:58:01;3.77;;;3.47;;
8462;SDS011;4268;52.506;13.462;2022-11-11T12:00:45;3.87;;;3.50;;
8462;SDS011;4268;52.506;13.462;2022-11-11T12:08:53;4.57;;;3.60;;
8462;SDS011;4268;52.506;13.462;2022-11-11T12:17:00;4.17;;;3.33;;
8462;SDS011;4268;52.506;13.462;2022-11-11T12:20:09;3.87;;;3.40;;
8462;SDS011;4268;52.506;13.462;2022-11-11T12:22:40;5.67;;;3.57;;
8462;SDS011;4268;52.506;13.462;2022-11-11T12:25:34;4.00;;;3.30;;
8462;SDS011;4268;52.506;13.462;2022-11-11T12:28:21;5.90;;;3.57;;
8462;SDS011;4268;52.506;13.462;2022-11-11T12:36:35;5.83;;;3.23;;
8462;SDS011;4268;52.506;13.462;2022-11-11T12:39:16;3.80;;;3.13;;
8462;SDS011;4268;52.506;13.462;2022-11-11T12:45:17;3.93;;;3.30;;
8462;SDS011;4268;52.506;13.462;2022-11-11T12:47:41;4.77;;;3.83;;
8462;SDS011;4268;52.506;13.462;2022-11-11T12:52:57;3.90;;;3.50;;
8462;SDS011;4268;52.506;13.462;2022-11-11T12:55:58;4.00;;;3.37;;
8462;SDS011;4268;52.506;13.462;2022-11-11T12:58:37;6.30;;;3.97;;
8462;SDS011;4268;52.506;13.462;2022-11-11T13:07:01;4.10;;;3.50;;
8462;SDS011;4268;52.506;13.462;2022-11-11T13:09:36;3.53;;;3.20;;
8462;SDS011;4268;52.506;13.462;2022-11-11T13:17:40;6.40;;;4.03;;
8462;SDS011;4268;52.506;13.462;2022-11-11T13:20:13;3.43;;;3.13;;
8462;SDS011;4268;52.506;13.462;2022-11-11T13:23:09;3.53;;;3.23;;
8462;SDS011;4268;52.506;13.462;2022-11-11T13:25:38;3.10;;;2.90;;
8462;SDS011;4268;52.506;13.462;2022-11-11T13:31:05;4.07;;;3.40;;
8462;SDS011;4268;52.506;13.462;2022-11-11T13:33:43;3.90;;;3.50;;
8462;SDS011;4268;52.506;13.462;2022-11-11T13:36:13;3.90;;;3.43;;
8462;SDS011;4268;52.506;13.462;2022-11-11T13:38:49;3.93;;;3.40;;
8462;SDS011;4268;52.506;13.462;2022-11-11T13:41:19;4.03;;;3.17;;
8462;SDS011;4268;52.506;13.462;2022-11-11T13:43:46;3.90;;;3.60;;
8462;SDS011;4268;52.506;13.462;2022-11-11T13:49:04;3.93;;;3.50;;
8462;SDS011;4268;52.506;13.462;2022-11-11T13:51:42;3.50;;;3.20;;
8462;SDS011;4268;52.506;13.462;2022-11-11T13:54:22;3.63;;;3.33;;
8462;SDS011;4268;52.506;13.462;2022-11-11T13:56:49;4.80;;;3.33;;
8462;SDS011;4268;52.506;13.462;2022-11-11T13:59:20;3.97;;;3.37;;
8462;SDS011;4268;52.506;13.462;2022-11-11T14:12:46;5.40;;;3.90;;
8462;SDS011;4268;52.506;13.462;2022-11-11T14:20:51;4.13;;;3.67;;
8462;SDS011;4268;52.506;13.462;2022-11-11T14:23:31;3.90;;;3.53;;
8462;SDS011;4268;52.506;13.462;2022-11-11T14:28:40;6.70;;;6.10;;
8462;SDS011;4268;52.506;13.462;2022-11-11T14:42:03;5.13;;;3.70;;
8462;SDS011;4268;52.506;13.462;2022-11-11T14:49:48;4.17;;;3.20;;
8462;SDS011;4268;52.506;13.462;2022-11-11T14:52:25;4.27;;;3.87;;
8462;SDS011;4268;52.506;13.462;2022-11-11T14:57:32;4.00;;;3.60;;
8462;SDS011;4268;52.506;13.462;2022-11-11T15:00:03;4.27;;;3.77;;
8462;SDS011;4268;52.506;13.462;2022-11-11T15:02:37;4.17;;;3.70;;
8462;SDS011;4268;52.506;13.462;2022-11-11T15:05:13;4.90;;;3.67;;
8462;SDS011;4268;52.506;13.462;2022-11-11T15:11:06;5.50;;;3.83;;
8462;SDS011;4268;52.506;13.462;2022-11-11T15:13:46;4.53;;;4.13;;
8462;SDS011;4268;52.506;13.462;2022-11-11T15:19:26;6.17;;;4.03;;
8462;SDS011;4268;52.506;13.462;2022-11-11T15:27:53;5.20;;;4.67;;
8462;SDS011;4268;52.506;13.462;2022-11-11T15:30:48;5.43;;;4.50;;
8462;SDS011;4268;52.506;13.462;2022-11-11T15:36:50;6.17;;;4.70;;
8462;SDS011;4268;52.506;13.462;2022-11-11T15:39:14;4.80;;;4.00;;
8462;SDS011;4268;52.506;13.462;2022-11-11T15:41:42;7.00;;;4.67;;
8462;SDS011;4268;52.506;13.462;2022-11-11T15:44:14;6.20;;;5.30;;
8462;SDS011;4268;52.506;13.462;2022-11-11T15:46:47;5.50;;;5.00;;
8462;SDS011;4268;52.506;13.462;2022-11-11T15:49:14;7.17;;;4.20;;
8462;SDS011;4268;52.506;13.462;2022-11-11T15:52:02;6.37;;;4.90;;
8462;SDS011;4268;52.506;13.462;2022-11-11T15:54:32;5.27;;;4.60;;
8462;SDS011;4268;52.506;13.462;2022-11-11T15:56:58;6.90;;;6.20;;
8462;SDS011;4268;52.506;13.462;2022-11-11T15:59:29;6.63;;;5.93;;
8462;SDS011;4268;52.506;13.462;2022-11-11T16:02:06;7.13;;;5.50;;
8462;SDS011;4268;52.506;13.462;2022-11-11T16:04:49;5.07;;;4.57;;
8462;SDS011;4268;52.506;13.462;2022-11-11T16:07:52;5.27;;;4.77;;
8462;SDS011;4268;52.506;13.462;2022-11-11T16:10:18;5.00;;;4.60;;
8462;SDS011;4268;52.506;13.462;2022-11-11T16:12:57;5.67;;;5.00;;
8462;SDS011;4268;52.506;13.462;2022-11-11T16:15:49;5.77;;;5.17;;
8462;SDS011;4268;52.506;13.462;2022-11-11T16:20:52;5.53;;;4.80;;
8462;SDS011;4268;52.506;13.462;2022-11-11T16:23:24;5.00;;;4.50;;
8462;SDS011;4268;52.506;13.462;2022-11-11T16:25:51;4.73;;;4.30;;
8462;SDS011;4268;52.506;13.462;2022-11-11T16:28:17;5.23;;;4.67;;
8462;SDS011;4268;52.506;13.462;2022-11-11T16:30:43;5.10;;;4.60;;
8462;SDS011;4268;52.506;13.462;2022-11-11T16:35:49;5.17;;;4.67;;
8462;SDS011;4268;52.506;13.462;2022-11-11T16:38:36;5.10;;;4.60;;
8462;SDS011;4268;52.506;13.462;2022-11-11T16:41:02;5.90;;;5.03;;
8462;SDS011;4268;52.506;13.462;2022-11-11T16:43:30;4.97;;;4.47;;
8462;SDS011;4268;52.506;13.462;2022-11-11T16:46:04;4.90;;;4.43;;
8462;SDS011;4268;52.506;13.462;2022-11-11T16:51:07;5.47;;;4.73;;
8462;SDS011;4268;52.506;13.462;2022-11-11T16:53:40;5.57;;;4.83;;
8462;SDS011;4268;52.506;13.462;2022-11-11T16:56:18;6.27;;;4.80;;
8462;SDS011;4268;52.506;13.462;2022-11-11T16:59:02;5.77;;;5.27;;
8462;SDS011;4268;52.506;13.462;2022-11-11T17:01:42;6.60;;;4.87;;
8462;SDS011;4268;52.506;13.462;2022-11-11T17:04:09;6.07;;;5.47;;
8462;SDS011;4268;52.506;13.462;2022-11-11T17:06:44;6.20;;;5.60;;
8462;SDS011;4268;52.506;13.462;2022-11-11T17:12:00;8.73;;;6.33;;
8462;SDS011;4268;52.506;13.462;2022-11-11T17:14:26;7.13;;;6.43;;
8462;SDS011;4268;52.506;13.462;2022-11-11T17:16:53;8.07;;;6.27;;
8462;SDS011;4268;52.506;13.462;2022-11-11T17:19:19;6.83;;;6.13;;
8462;SDS011;4268;52.506;13.462;2022-11-11T17:21:45;7.17;;;6.40;;
8462;SDS011;4268;52.506;13.462;2022-11-11T17:24:11;7.93;;;6.83;;
8462;SDS011;4268;52.506;13.462;2022-11-11T17:26:38;7.50;;;6.70;;
8462;SDS011;4268;52.506;13.462;2022-11-11T17:29:04;7.60;;;6.90;;
8462;SDS011;4268;52.506;13.462;2022-11-11T17:31:30;7.47;;;6.67;;
8462;SDS011;4268;52.506;13.462;2022-11-11T17:33:56;9.10;;;6.87;;
8462;SDS011;4268;52.506;13.462;2022-11-11T17:36:21;7.07;;;6.37;;
8462;SDS011;4268;52.506;13.462;2022-11-11T17:38:47;9.13;;;6.53;;
8462;SDS011;4268;52.506;13.462;2022-11-11T17:41:13;7.27;;;6.57;;